createdAt,value
2019-02-16T17:16:41.457Z,7.24
2019-02-16T17:21:01.149Z,7.62
2019-02-16T17:23:48.279Z,7.75
2019-02-16T17:26:37.985Z,7.83
2019-02-16T17:29:13.075Z,7.86
2019-02-16T17:31:48.084Z,7.89
2019-02-16T17:34:20.284Z,7.83
2019-02-16T17:37:08.220Z,7.94
2019-02-16T17:39:45.977Z,7.89
2019-02-16T17:42:33.955Z,7.87
2019-02-16T17:45:10.901Z,7.80
2019-02-16T17:47:56.145Z,7.86
2019-02-16T17:50:44.224Z,7.82
2019-02-16T17:53:22.207Z,7.89
2019-02-16T17:55:54.337Z,7.90
2019-02-16T17:58:32.260Z,7.87
2019-02-16T18:01:22.246Z,7.88
2019-02-16T18:04:03.012Z,7.90
2019-02-16T18:06:37.624Z,7.89
2019-02-16T18:09:09.560Z,7.90
2019-02-16T18:11:41.524Z,7.76
2019-02-16T18:14:24.089Z,7.82
2019-02-16T18:16:56.068Z,7.87
2019-02-16T18:19:28.034Z,7.77
2019-02-16T18:22:05.865Z,7.82
2019-02-16T18:24:37.815Z,7.84
2019-02-16T18:27:18.731Z,7.80
2019-02-16T18:29:53.659Z,7.81
2019-02-16T18:32:40.706Z,7.79
2019-02-16T18:35:23.756Z,7.86
2019-02-16T18:37:55.234Z,7.84
2019-02-16T18:40:33.197Z,7.89
2019-02-16T18:43:17.469Z,7.89
2019-02-16T18:45:49.530Z,7.91
2019-02-16T18:48:21.459Z,7.84
2019-02-16T18:50:53.402Z,7.83
2019-02-16T18:53:25.339Z,7.89
2019-02-16T18:56:03.091Z,7.84
2019-02-16T18:58:35.070Z,7.87
2019-02-16T19:01:11.101Z,7.82
2019-02-16T19:03:48.865Z,7.82
2019-02-16T19:06:20.836Z,7.72
2019-02-16T19:09:01.508Z,7.66
2019-02-16T19:11:42.733Z,7.81
2019-02-16T19:14:14.947Z,7.88
2019-02-16T19:16:56.020Z,7.88
2019-02-16T19:19:42.771Z,7.89
2019-02-16T19:22:30.933Z,7.88
2019-02-16T19:25:05.930Z,7.79
2019-02-16T19:27:53.799Z,7.81
2019-02-16T19:30:25.742Z,7.80
2019-02-16T19:33:00.783Z,7.78
2019-02-16T19:35:33.084Z,7.84
2019-02-16T19:38:07.625Z,7.85
2019-02-16T19:40:54.389Z,7.82
2019-02-16T19:43:28.029Z,7.79
2019-02-16T19:46:09.371Z,7.80
2019-02-16T19:48:41.805Z,7.68
2019-02-16T19:51:13.719Z,7.72
2019-02-16T19:53:48.836Z,7.74
2019-02-16T19:56:26.837Z,7.75
2019-02-16T19:59:11.809Z,7.77
2019-02-16T20:01:44.303Z,7.78
2019-02-16T20:04:19.023Z,7.77
2019-02-16T20:06:59.817Z,7.77
2019-02-16T20:09:31.784Z,7.79
2019-02-16T20:12:15.818Z,7.72
2019-02-16T20:14:51.143Z,7.74
2019-02-16T20:17:32.059Z,7.70
2019-02-16T20:20:04.028Z,7.71
2019-02-16T20:22:39.221Z,7.73
2019-02-16T20:25:20.133Z,7.74
2019-02-16T20:27:55.310Z,7.73
2019-02-16T20:30:27.296Z,7.72
2019-02-16T20:33:01.929Z,7.77
2019-02-16T20:35:33.874Z,7.76
2019-02-16T20:38:05.830Z,7.73
2019-02-16T20:40:40.549Z,7.76
2019-02-16T20:43:18.415Z,7.75
2019-02-16T20:45:53.287Z,7.74
2019-02-16T20:48:30.845Z,7.73
2019-02-16T20:51:02.806Z,7.71
2019-02-16T20:53:34.979Z,7.69
2019-02-16T20:56:18.953Z,7.73
2019-02-16T20:58:50.899Z,7.73
2019-02-16T21:01:39.040Z,7.76
2019-02-16T21:04:13.733Z,7.76
2019-02-16T21:06:45.702Z,7.66
2019-02-16T21:09:29.574Z,7.69
2019-02-16T21:12:10.578Z,7.71
2019-02-16T21:14:42.881Z,7.65
2019-02-16T21:17:23.865Z,7.69
2019-02-16T21:19:58.491Z,7.71
2019-02-16T21:22:42.238Z,7.71
2019-02-16T21:25:17.397Z,7.71
2019-02-16T21:27:58.025Z,7.76
2019-02-16T21:30:36.189Z,7.74
2019-02-16T21:33:24.289Z,7.69
2019-02-16T21:36:02.034Z,7.74
2019-02-16T21:38:42.800Z,7.77
2019-02-16T21:41:29.740Z,7.75
2019-02-16T21:44:01.679Z,7.73
2019-02-16T21:46:33.601Z,7.62
2019-02-16T21:49:08.973Z,7.65
2019-02-16T21:51:40.941Z,7.70
2019-02-16T21:54:19.782Z,7.41
2019-02-16T21:57:03.794Z,7.61
2019-02-16T21:59:38.934Z,7.67
2019-02-16T22:02:11.245Z,7.51
2019-02-16T22:04:58.425Z,7.58
2019-02-16T22:07:42.405Z,7.66
2019-02-16T22:10:19.957Z,7.66
2019-02-16T22:12:51.940Z,7.68
2019-02-16T22:15:22.433Z,7.66
2019-02-16T22:17:52.901Z,7.54
2019-02-16T22:20:23.353Z,7.61
2019-02-16T22:22:53.659Z,7.41
2019-02-16T22:25:24.023Z,7.50
2019-02-16T22:27:54.383Z,7.59
2019-02-16T22:30:25.786Z,7.59
2019-02-16T22:32:56.509Z,7.68
2019-02-16T22:35:26.794Z,7.70
2019-02-16T22:37:57.342Z,7.66
2019-02-16T22:40:30.079Z,7.36
2019-02-16T22:43:00.681Z,7.57
2019-02-16T22:45:31.479Z,7.62
2019-02-16T22:48:01.968Z,7.68
2019-02-16T22:50:32.535Z,7.69
2019-02-16T22:53:03.095Z,7.55
2019-02-16T22:55:33.449Z,7.63
2019-02-16T22:58:03.956Z,7.67
2019-02-16T23:00:38.652Z,7.71
2019-02-16T23:03:09.307Z,7.64
2019-02-16T23:05:39.763Z,7.63
2019-02-16T23:08:10.168Z,7.66
2019-02-16T23:10:40.590Z,7.71
2019-02-16T23:13:10.986Z,7.64
2019-02-16T23:15:41.361Z,7.69
2019-02-16T23:18:11.736Z,7.70
2019-02-16T23:20:42.411Z,7.67
2019-02-16T23:23:12.697Z,7.63
2019-02-16T23:25:42.999Z,7.68
2019-02-16T23:28:13.425Z,7.68
2019-02-16T23:30:43.867Z,7.74
2019-02-16T23:33:14.421Z,7.77
2019-02-16T23:35:44.720Z,7.75
2019-02-16T23:38:15.172Z,7.64
2019-02-16T23:40:45.550Z,7.64
2019-02-16T23:43:15.992Z,7.56
2019-02-16T23:45:46.783Z,7.46
2019-02-16T23:48:17.269Z,7.57
2019-02-16T23:50:48.408Z,7.66
2019-02-16T23:53:20.258Z,7.67
2019-02-16T23:55:50.604Z,7.65
2019-02-16T23:58:20.917Z,7.67
